Flight Track Log - Related Links

Times and Time Zones

All times are in EDT time to prevent confusion due to time zone crossing. See the N612CT flight status page for this flight to view local times or setup timezone preferences in your user account.


Time Position Orientation Groundspeed Altitude Reporting Facility
EDT Latitude Longitude Course Direction KTS MPH feet Rate Location/Type
Fri 03:38:00 PM 26.3719 -81.9033 355° North  Level Estimated
Fri 03:39:00 PM 26.4132 -81.9012 North  Level FlightAware Approximate
Fri 03:40:00 PM 26.4544 -81.8992 North  Level FlightAware Approximate
Fri 03:41:00 PM 26.4956 -81.8971 North  Level FlightAware Approximate
Fri 03:42:00 PM 26.5368 -81.8951 North  Level FlightAware Approximate
Fri 03:43:00 PM 26.5780 -81.8930 North  Level FlightAware Approximate
Fri 03:44:00 PM 26.6193 -81.8909 North  Level FlightAware Approximate
Fri 03:45:00 PM 26.6605 -81.8888 North  Level FlightAware Approximate
Fri 03:46:00 PM 26.7017 -81.8868 North  Level FlightAware Approximate
Fri 03:47:00 PM 26.7429 -81.8847 North  Level FlightAware Approximate
Fri 03:48:00 PM 26.7846 -81.8826 North  Level FlightAware Approximate
Fri 03:49:00 PM 26.8262 -81.8805 North  Level FlightAware Approximate
Fri 03:50:00 PM 26.8679 -81.8784 North  Level FlightAware Approximate
Fri 03:51:00 PM 26.9095 -81.8763 North  Level FlightAware Approximate
Fri 03:52:00 PM 26.9512 -81.8742 North  Level FlightAware Approximate
Fri 03:53:00 PM 26.9928 -81.8721 North  Level FlightAware Approximate
Fri 03:54:00 PM 27.0345 -81.8700 North  Level FlightAware Approximate
Fri 03:55:00 PM 27.0761 -81.8679 North  Level FlightAware Approximate
Fri 03:56:00 PM 27.1215 -81.8691 354° North  Level FlightAware Approximate
Fri 03:57:00 PM 27.1630 -81.8737 354° North  Level FlightAware Approximate
Fri 03:58:00 PM 27.2045 -81.8783 354° North  Level FlightAware Approximate
Fri 03:59:00 PM 27.2460 -81.8829 354° North  Level FlightAware Approximate
Fri 04:00:00 PM 27.2873 -81.8891 352° North  Level FlightAware Approximate
Fri 04:00:40 PM 27.3058 -81.9239 350° North 178 205 10,000  Level Miami Center
Fri 04:01:00 PM 27.3284 -81.8972 350° North  Level FlightAware Approximate
Fri 04:01:40 PM 27.3519 -81.9117 13° North 178 205 10,000  Level Miami Center
Fri 04:02:00 PM 27.3695 -81.9052 350° North  Level FlightAware Approximate
Fri 04:02:40 PM 27.4006 -81.8997 12° North 178 205 10,000  Level Miami Center
Fri 04:03:00 PM 27.4106 -81.9133 350° North  Level FlightAware Approximate
Fri 04:03:40 PM 27.4489 -81.8903 10° North 178 205 10,000  Level Miami Center
Fri 04:04:00 PM 27.4517 -81.9213 350° North  Level FlightAware Approximate
Fri 04:04:40 PM 27.4969 -81.8831 North 178 205 10,000  Level Miami Center
Fri 04:05:00 PM 27.4927 -81.9294 350° North  Level FlightAware Approximate
Fri 04:05:40 PM 27.5453 -81.8733 10° North 178 205 10,000  Level Miami Center
Fri 04:06:00 PM 27.5338 -81.9375 350° North  Level FlightAware Approximate
Fri 04:06:40 PM 27.5958 -81.8639 North 172 198 10,000  Level Miami Center
Fri 04:07:40 PM 27.6436 -81.8683 355° North 167 192 10,000  Level Miami Center
Fri 04:08:40 PM 27.6892 -81.8797 348° North 167 192 10,000  Level Miami Center
Fri 04:09:40 PM 27.7281 -81.8978 338° Northwest 162 186 10,000  Level Miami Center
Fri 04:10:40 PM 27.7794 -81.9189 340° North 174 200 10,000  Level Miami Center
Fri 04:11:40 PM 27.8225 -81.9419 335° Northwest 174 200 10,000  Level Miami Center
Fri 04:12:40 PM 27.8678 -81.9628 338° Northwest 174 200 10,000  Level Miami Center
Fri 04:13:40 PM 27.9131 -81.9811 340° North 174 200 10,000  Level Miami Center
Fri 04:14:40 PM 27.9539 -82.0019 336° Northwest 174 200 10,000  Level Miami Center
Fri 04:15:40 PM 27.9992 -82.0250 336° Northwest 174 200 10,000  Level Miami Center
Fri 04:16:40 PM 28.0378 -82.0503 330° Northwest 169 194 10,000  Level Miami Center
Fri 04:18:07 PM 28.1000 -82.0833 335° Northwest 170 196 10,000  Level Tampa TRACON
Fri 04:19:07 PM 28.1333 -82.1167 319° Northwest 167 192 10,000  Level Tampa TRACON
Fri 04:20:07 PM 28.1833 -82.1500 330° Northwest 167 192 10,000  Level Tampa TRACON
Fri 04:21:07 PM 28.2167 -82.1833 319° Northwest 169 194 10,000  Level Tampa TRACON
Fri 04:22:07 PM 28.2500 -82.2000 336° Northwest 170 196 10,000  Level Tampa TRACON
Fri 04:23:07 PM 28.3000 -82.2333 330° Northwest 169 194 10,000  Level Tampa TRACON
Fri 04:24:07 PM 28.3333 -82.2667 319° Northwest 168 193 10,000  Level Tampa TRACON
Fri 04:25:07 PM 28.3667 -82.3000 319° Northwest 169 194 10,000  Level Tampa TRACON
Fri 04:26:07 PM 28.4000 -82.3333 319° Northwest 171 197 10,000  Level Tampa TRACON
Fri 04:27:07 PM 28.4333 -82.3833 307° West 171 197 10,000  Level Tampa TRACON
Fri 04:28:08 PM 28.4667 -82.4000 336° Northwest 169 194 10,000  Level Tampa TRACON
Fri 04:29:08 PM 28.5167 -82.4333 330° Northwest 173 199 10,000  Level Tampa TRACON
Fri 04:30:08 PM 28.5500 -82.4500 336° Northwest 171 197 10,000  Level Tampa TRACON
Fri 04:31:14 PM 28.6064 -82.4858 331° Northwest 175 201 10,000  Level Jacksonville Center
Fri 04:32:21 PM 28.6564 -82.5142 334° Northwest 176 203 10,000  Level Jacksonville Center
Fri 04:33:16 PM 28.6961 -82.5375 333° Northwest 175 201 10,000  Level Jacksonville Center
Fri 04:34:23 PM 28.7422 -82.5611 336° Northwest 170 196 10,000  Level Jacksonville Center
Fri 04:35:24 PM 28.7819 -82.5942 324° Northwest 175 201 10,000  Level Jacksonville Center
Fri 04:36:54 PM 28.8322 -82.6436 319° Northwest 178 205 10,000  Level Jacksonville Center
Fri 04:37:54 PM 28.8678 -82.6839 315° West 178 205 10,000  Level Jacksonville Center
Fri 04:38:54 PM 28.9031 -82.7217 317° Northwest 173 199 10,000  Level Jacksonville Center
Fri 04:39:54 PM 28.9367 -82.7575 317° Northwest 173 199 10,000  Level Jacksonville Center
Fri 04:40:54 PM 28.9764 -82.8025 315° West 173 199 10,000  Level Jacksonville Center
Fri 04:42:00 PM 29.0158 -82.8337 317° Northwest  Level FlightAware Approximate
Fri 04:42:54 PM 29.0472 -82.8758 317° Northwest 173 199 10,000  Level Jacksonville Center
Fri 04:43:54 PM 29.0744 -82.9069 315° West 173 199 10,000  Level Jacksonville Center
Fri 04:44:54 PM 29.1183 -82.9519 318° Northwest 168 193 10,000  Level Jacksonville Center
Fri 04:45:54 PM 29.1536 -82.9900 317° Northwest 173 199 10,000  Level Jacksonville Center
Fri 04:46:54 PM 29.1892 -83.0281 317° Northwest 173 199 10,000  Level Jacksonville Center
Fri 04:47:54 PM 29.2225 -83.0661 315° West 173 199 10,000  Level Jacksonville Center
Fri 04:48:54 PM 29.2581 -83.1044 317° Northwest 173 199 10,000  Level Jacksonville Center
Fri 04:49:54 PM 29.2933 -83.1425 317° Northwest 173 199 10,000  Level Jacksonville Center
Fri 04:50:54 PM 29.3289 -83.1808 317° Northwest 173 199 10,000  Level Jacksonville Center
Fri 04:51:54 PM 29.3622 -83.2189 315° West 173 199 10,000  Level Jacksonville Center
Fri 04:52:54 PM 29.3975 -83.2572 317° Northwest 173 199 10,000  Level Jacksonville Center
Fri 04:53:54 PM 29.4328 -83.2956 317° Northwest 173 199 10,000  Level Jacksonville Center
Fri 04:54:54 PM 29.4703 -83.3339 318° Northwest 173 199 10,000  Level Jacksonville Center
Fri 04:55:54 PM 29.5036 -83.3697 317° Northwest 173 199 10,000  Level Jacksonville Center
Fri 04:56:54 PM 29.5389 -83.4083 316° Northwest 173 199 10,000  Level Jacksonville Center
Fri 04:57:54 PM 29.5722 -83.4467 315° West 173 199 10,000  Level Jacksonville Center
Fri 04:58:54 PM 29.6075 -83.4850 317° Northwest 173 199 10,000  Level Jacksonville Center
Fri 04:59:54 PM 29.6428 -83.5211 318° Northwest 173 199 10,000  Level Jacksonville Center
Fri 05:00:54 PM 29.6781 -83.5594 317° Northwest 173 199 10,000  Level Jacksonville Center
Fri 05:01:54 PM 29.7114 -83.5956 317° Northwest 173 199 10,000  Level Jacksonville Center
Fri 05:02:54 PM 29.7467 -83.6342 316° Northwest 173 199 10,000  Level Jacksonville Center
Fri 05:03:54 PM 29.7797 -83.6703 317° Northwest 173 199 10,000 -350 Level Jacksonville Center
Fri 05:04:54 PM 29.8172 -83.7114 316° Northwest 173 199 9,300 -600 Descending Jacksonville Center
Fri 05:05:54 PM 29.8544 -83.7522 316° Northwest 178 205 8,800 -550 Descending Jacksonville Center
Fri 05:06:54 PM 29.8939 -83.7933 318° Northwest 178 205 8,200 -550 Descending Jacksonville Center
Fri 05:07:54 PM 29.9289 -83.8319 316° Northwest 178 205 7,700 -550 Descending Jacksonville Center
Fri 05:08:54 PM 29.9664 -83.8756 315° West 178 205 7,100 -550 Descending Jacksonville Center
Fri 05:09:54 PM 30.0014 -83.9144 316° Northwest 178 205 6,600 -500 Descending Jacksonville Center
Fri 05:10:54 PM 30.0386 -83.9556 316° Northwest 178 205 6,100 -500 Descending Jacksonville Center
Fri 05:11:54 PM 30.0758 -83.9967 316° Northwest 178 205 5,600 -500 Descending Jacksonville Center
Fri 05:13:00 PM 30.1133 -84.0327 320° Northwest  Level FlightAware Approximate
Fri 05:20:00 PM 30.3333 -84.2833 311° West  Level FlightAware Approximate
Fri 05:21:00 PM 30.3624 -84.3221 311° West  Level FlightAware Approximate
Fri 05:22:00 PM 30.3833 -84.3500 311° West  Level FlightAware Approximate
Fri 05:23:00 PM 30.3967 -84.3509 311° West  Level Estimated
Fri 05:24:00 PM 30.3967 -84.3509 311° West  Level Estimated
Fri 05:25:00 PM 30.3967 -84.3509 311° West  Level Estimated
Fri 05:26:00 PM 30.3967 -84.3509 311° West  Level Estimated
Fri 05:27:00 PM 30.3967 -84.3509 311° West  Level Estimated
Fri 05:28:00 PM 30.3967 -84.3509 311° West  Level Estimated
Fri 05:29:00 PM 30.3967 -84.3509 311° West  Level Estimated

Login

Don't have an account? Register now (free) for customized features, flight alerts, and more!